Time;durP1;ratioP1;P1;durP2;ratioP2;P2;SDS_P1;SDS_P2;PMS_P1;PMS_P2;Temp;Humidity;BMP_temperature;BMP_pressure;BME280_temperature;BME280_humidity;BME280_pressure;Samples;Min_cycle;Max_cycle;Signal;HPM_P1;HPM_P2
2021/10/20 00:00:43;;;;;;;5.27;4.53;;;15.10;99.90;;;;;;5118505;28;20517;-71
2021/10/20 00:03:10;;;;;;;5.03;4.53;;;15.00;99.90;;;;;;5118586;28;20477;-70
2021/10/20 00:05:36;;;;;;;5.03;4.53;;;15.10;99.90;;;;;;5118212;28;20479;-71
2021/10/20 00:08:07;;;;;;;5.33;4.83;;;15.00;99.90;;;;;;5117909;28;20513;-71
2021/10/20 00:10:35;;;;;;;5.47;4.97;;;15.00;99.90;;;;;;5118787;28;20443;-71
2021/10/20 00:13:02;;;;;;;4.83;4.43;;;15.00;99.90;;;;;;5118562;27;20448;-70
2021/10/20 00:15:31;;;;;;;5.50;5.00;;;15.00;99.90;;;;;;5118043;28;20456;-70
2021/10/20 00:17:57;;;;;;;5.40;4.90;;;15.00;99.90;;;;;;5118404;28;20842;-71
2021/10/20 00:20:27;;;;;;;6.63;5.43;;;15.00;99.90;;;;;;5118665;28;20453;-71
2021/10/20 00:22:54;;;;;;;5.80;5.20;;;15.00;99.90;;;;;;5117927;28;20801;-70
2021/10/20 00:25:21;;;;;;;6.77;5.97;;;15.00;99.90;;;;;;5117402;28;20464;-69
2021/10/20 00:27:48;;;;;;;6.83;5.70;;;15.00;99.90;;;;;;5117847;28;20847;-70
2021/10/20 00:30:16;;;;;;;7.07;5.73;;;14.90;99.90;;;;;;5117780;28;20472;-70
2021/10/20 00:32:45;;;;;;;6.60;5.67;;;14.90;99.90;;;;;;5117768;27;20472;-70
2021/10/20 00:35:12;;;;;;;7.23;5.93;;;14.90;99.90;;;;;;5117723;27;20500;-70
2021/10/20 00:37:38;;;;;;;9.27;6.47;;;14.90;99.90;;;;;;5117662;28;20478;-70
2021/10/20 00:40:09;;;;;;;9.03;6.40;;;14.80;99.90;;;;;;5117124;28;20916;-70
2021/10/20 00:42:36;;;;;;;8.03;6.60;;;14.80;99.90;;;;;;5117581;28;20842;-70
2021/10/20 00:45:05;;;;;;;8.00;6.63;;;14.80;99.90;;;;;;5117527;28;20753;-70
2021/10/20 00:47:34;;;;;;;6.90;6.20;;;14.80;99.90;;;;;;5117414;28;20464;-70
2021/10/20 00:50:03;;;;;;;7.43;6.20;;;14.80;99.90;;;;;;5117183;28;20469;-70
2021/10/20 00:52:30;;;;;;;9.23;6.00;;;14.80;99.90;;;;;;5117894;27;20457;-70
2021/10/20 00:54:58;;;;;;;6.60;5.90;;;14.80;99.90;;;;;;5117444;28;20530;-70
2021/10/20 00:57:26;;;;;;;7.03;6.30;;;14.80;99.90;;;;;;5116755;28;20967;-70
2021/10/20 00:59:54;;;;;;;7.90;7.00;;;14.80;99.90;;;;;;5116897;28;20468;-70
2021/10/20 01:02:21;;;;;;;14.90;6.60;;;14.80;99.90;;;;;;5117138;28;20490;-70
2021/10/20 01:04:48;;;;;;;10.20;6.83;;;14.80;99.90;;;;;;5117100;28;20460;-70
2021/10/20 01:07:17;;;;;;;8.40;7.40;;;14.80;99.90;;;;;;5116699;28;20602;-70
2021/10/20 01:09:44;;;;;;;9.23;7.77;;;14.80;99.90;;;;;;5117180;28;20461;-69
2021/10/20 01:12:15;;;;;;;8.67;7.27;;;14.80;99.90;;;;;;5116812;28;20463;-70
2021/10/20 01:14:42;;;;;;;7.93;7.13;;;14.80;99.90;;;;;;5116925;28;20460;-70
2021/10/20 01:17:08;;;;;;;9.30;8.30;;;14.70;99.90;;;;;;5116557;28;20464;-70
2021/10/20 01:19:41;;;;;;;10.13;8.20;;;14.70;99.90;;;;;;5116661;28;20464;-70
2021/10/20 01:22:09;;;;;;;10.60;8.87;;;14.80;99.90;;;;;;5116506;28;20624;-69
2021/10/20 01:24:36;;;;;;;14.07;9.43;;;14.70;99.90;;;;;;5116832;28;20456;-70
2021/10/20 01:27:04;;;;;;;11.80;8.47;;;14.70;99.90;;;;;;5117007;28;20457;-70
2021/10/20 01:29:30;;;;;;;9.67;8.60;;;14.70;99.90;;;;;;5117454;27;20849;-69
2021/10/20 01:31:59;;;;;;;11.47;8.70;;;14.70;99.90;;;;;;5117006;28;20460;-70
2021/10/20 01:34:26;;;;;;;10.60;8.90;;;14.70;99.90;;;;;;5117414;28;20461;-69
2021/10/20 01:36:54;;;;;;;10.77;9.77;;;14.60;99.90;;;;;;5117240;27;20518;-70
2021/10/20 01:39:22;;;;;;;11.23;9.47;;;14.60;99.90;;;;;;5116840;28;20460;-70
2021/10/20 01:41:50;;;;;;;10.87;9.70;;;14.60;99.90;;;;;;5116855;28;20465;-70
2021/10/20 01:44:17;;;;;;;13.40;10.60;;;14.60;99.90;;;;;;5115877;28;20523;-70
2021/10/20 01:46:44;;;;;;;13.43;11.00;;;14.60;99.90;;;;;;5116276;28;20514;-70
2021/10/20 01:49:11;;;;;;;12.40;11.10;;;14.60;99.90;;;;;;5116145;28;20518;-70
2021/10/20 01:51:37;;;;;;;12.80;10.33;;;14.60;99.90;;;;;;5115745;28;20819;-70
2021/10/20 01:54:05;;;;;;;12.83;11.07;;;14.60;99.90;;;;;;5116095;28;20456;-70
2021/10/20 01:56:33;;;;;;;14.13;11.50;;;14.60;99.90;;;;;;5115567;28;20490;-70
2021/10/20 01:58:59;;;;;;;13.70;11.43;;;14.60;99.90;;;;;;5115521;28;20456;-70
2021/10/20 02:01:28;;;;;;;14.60;11.60;;;14.60;99.90;;;;;;5115979;28;20460;-70
2021/10/20 02:03:55;;;;;;;16.70;11.80;;;14.60;99.90;;;;;;5115786;28;20492;-70
2021/10/20 02:06:21;;;;;;;12.87;11.00;;;14.60;99.90;;;;;;5115722;28;20500;-70
2021/10/20 02:08:49;;;;;;;14.50;12.40;;;14.60;99.90;;;;;;5115575;28;20440;-70
2021/10/20 02:11:18;;;;;;;12.87;11.20;;;14.60;99.90;;;;;;5115545;28;20916;-70
2021/10/20 02:13:46;;;;;;;16.63;12.00;;;14.60;99.90;;;;;;5115925;28;20456;-70
2021/10/20 02:16:13;;;;;;;16.30;11.80;;;14.60;99.90;;;;;;5115275;28;20521;-70
2021/10/20 02:18:40;;;;;;;14.50;11.67;;;14.60;99.90;;;;;;5115899;28;20457;-70
2021/10/20 02:21:06;;;;;;;15.17;11.73;;;14.60;99.90;;;;;;5115589;28;20457;-70
2021/10/20 02:23:33;;;;;;;14.70;12.27;;;14.50;99.90;;;;;;5115323;28;20483;-70
2021/10/20 02:26:00;;;;;;;12.63;10.87;;;14.60;99.90;;;;;;5116275;28;20929;-70
2021/10/20 02:28:28;;;;;;;13.50;12.20;;;14.50;99.90;;;;;;5115619;28;20475;-70
2021/10/20 02:30:56;;;;;;;13.57;11.17;;;14.50;99.90;;;;;;5115293;28;20550;-70
2021/10/20 02:33:23;;;;;;;12.37;11.07;;;14.50;99.90;;;;;;5115462;28;20927;-71
2021/10/20 02:35:49;;;;;;;17.10;11.87;;;14.50;99.90;;;;;;5115216;28;20805;-70
2021/10/20 02:38:16;;;;;;;13.90;11.50;;;14.50;99.90;;;;;;5115689;28;20534;-70
2021/10/20 02:40:43;;;;;;;12.40;10.60;;;14.50;99.90;;;;;;5115503;28;20448;-70
2021/10/20 02:43:09;;;;;;;13.57;11.17;;;14.50;99.90;;;;;;5115185;28;20604;-70
2021/10/20 02:45:36;;;;;;;15.20;11.13;;;14.50;99.90;;;;;;5115259;28;20457;-70
2021/10/20 02:48:05;;;;;;;13.80;10.90;;;14.50;99.90;;;;;;5115412;28;20532;-70
2021/10/20 02:50:32;;;;;;;15.30;11.83;;;14.40;99.90;;;;;;5114956;28;20844;-70
2021/10/20 02:52:59;;;;;;;13.70;10.80;;;14.40;99.90;;;;;;5115310;28;20784;-70
2021/10/20 02:55:26;;;;;;;13.70;10.97;;;14.40;99.90;;;;;;5114942;28;20514;-70
2021/10/20 02:57:52;;;;;;;12.53;10.00;;;14.40;99.90;;;;;;5115146;28;20461;-70
2021/10/20 03:00:19;;;;;;;11.93;10.67;;;14.40;99.90;;;;;;5114770;28;20455;-70
2021/10/20 03:02:46;;;;;;;13.27;10.73;;;14.30;99.90;;;;;;5117451;28;20517;-70
2021/10/20 03:05:14;;;;;;;16.20;11.73;;;14.30;99.90;;;;;;5119392;27;20453;-69
2021/10/20 03:07:46;;;;;;;11.97;10.37;;;14.30;99.90;;;;;;5119093;28;20963;-69
2021/10/20 03:10:13;;;;;;;11.37;10.00;;;14.20;99.90;;;;;;5119328;28;20478;-69
2021/10/20 03:12:40;;;;;;;14.10;11.43;;;14.20;99.90;;;;;;5119697;28;20448;-70
2021/10/20 03:15:08;;;;;;;12.20;10.37;;;14.20;99.90;;;;;;5119141;28;20456;-69
2021/10/20 03:17:34;;;;;;;15.03;10.87;;;14.20;99.90;;;;;;5119273;28;20456;-70
2021/10/20 03:20:01;;;;;;;11.93;10.70;;;14.20;99.90;;;;;;5119251;28;20456;-69
2021/10/20 03:22:29;;;;;;;16.50;9.83;;;14.20;99.90;;;;;;5119053;28;20459;-69
2021/10/20 03:24:56;;;;;;;11.83;10.63;;;14.20;99.90;;;;;;5119031;28;20503;-70
2021/10/20 03:27:22;;;;;;;12.97;10.17;;;14.20;99.90;;;;;;5119135;28;20465;-69
2021/10/20 03:29:49;;;;;;;10.37;9.33;;;14.20;99.90;;;;;;5118844;28;20935;-69
2021/10/20 03:32:16;;;;;;;12.20;9.77;;;14.20;99.90;;;;;;5118717;28;20973;-70
2021/10/20 03:34:42;;;;;;;11.97;10.20;;;14.20;99.90;;;;;;5118834;28;20763;-70
2021/10/20 03:37:09;;;;;;;13.07;10.57;;;14.30;99.90;;;;;;5118845;27;20743;-70
2021/10/20 03:39:37;;;;;;;12.07;10.07;;;14.30;99.90;;;;;;5118785;28;20451;-69
2021/10/20 03:42:04;;;;;;;11.37;10.17;;;14.30;99.90;;;;;;5118496;28;20480;-69
2021/10/20 03:44:31;;;;;;;14.17;10.00;;;14.30;99.90;;;;;;5118664;28;20858;-70
2021/10/20 03:46:57;;;;;;;14.33;10.30;;;14.30;99.90;;;;;;5118068;28;20913;-69
2021/10/20 03:49:24;;;;;;;11.47;9.90;;;14.30;99.90;;;;;;5118539;27;20463;-70
2021/10/20 03:51:51;;;;;;;11.50;9.77;;;14.30;99.90;;;;;;5118489;28;20517;-70
2021/10/20 03:54:17;;;;;;;14.73;10.53;;;14.30;99.90;;;;;;5118574;28;20453;-69
2021/10/20 03:56:45;;;;;;;11.53;9.67;;;14.30;99.90;;;;;;5118382;28;20468;-69
2021/10/20 03:59:12;;;;;;;10.97;9.50;;;14.30;99.90;;;;;;5118309;28;20464;-69
2021/10/20 04:01:39;;;;;;;11.10;9.87;;;14.30;99.90;;;;;;5118276;28;20459;-69
2021/10/20 04:04:05;;;;;;;12.40;9.63;;;14.30;99.90;;;;;;5118076;28;20484;-70
2021/10/20 04:06:32;;;;;;;9.80;8.80;;;14.30;99.90;;;;;;5118176;28;20484;-69
2021/10/20 04:08:58;;;;;;;9.23;8.30;;;14.30;99.90;;;;;;5118631;28;20456;-70
2021/10/20 04:11:25;;;;;;;11.80;9.70;;;14.30;99.90;;;;;;5118181;28;20925;-69
2021/10/20 04:13:53;;;;;;;10.20;9.20;;;14.30;99.90;;;;;;5118526;28;20834;-69
2021/10/20 04:16:20;;;;;;;9.07;7.93;;;14.30;99.90;;;;;;5118437;28;20500;-69
2021/10/20 04:18:46;;;;;;;9.80;8.80;;;14.30;99.90;;;;;;5118513;28;20461;-69
2021/10/20 04:21:13;;;;;;;11.00;9.03;;;14.30;99.90;;;;;;5118989;28;20505;-69
2021/10/20 04:23:40;;;;;;;10.23;8.10;;;14.30;99.90;;;;;;5118423;28;20479;-70
2021/10/20 04:26:06;;;;;;;11.43;8.40;;;14.30;99.90;;;;;;5118827;27;20457;-70
2021/10/20 04:28:33;;;;;;;11.77;8.43;;;14.40;99.90;;;;;;5118950;28;20460;-69
2021/10/20 04:31:01;;;;;;;13.90;8.53;;;14.30;99.90;;;;;;5118817;28;20568;-70
2021/10/20 04:33:28;;;;;;;9.40;8.43;;;14.30;99.90;;;;;;5118680;28;20553;-71
2021/10/20 04:35:55;;;;;;;9.00;8.10;;;14.30;99.90;;;;;;5119010;28;20757;-70
2021/10/20 04:38:24;;;;;;;9.50;8.53;;;14.30;99.90;;;;;;5119044;28;20529;-70
2021/10/20 04:40:51;;;;;;;9.33;8.43;;;14.30;99.90;;;;;;5118281;28;20453;-70
2021/10/20 04:43:17;;;;;;;12.00;8.30;;;14.30;99.90;;;;;;5118213;28;20542;-69
2021/10/20 04:45:44;;;;;;;8.97;7.43;;;14.30;99.90;;;;;;5118414;28;20456;-69
2021/10/20 04:48:12;;;;;;;12.10;8.93;;;14.30;99.90;;;;;;5118127;28;20466;-70
2021/10/20 04:50:39;;;;;;;9.43;8.43;;;14.30;99.90;;;;;;5117343;28;20461;-70
2021/10/20 04:53:06;;;;;;;9.00;8.10;;;14.30;99.90;;;;;;5117396;28;20449;-70
2021/10/20 04:55:33;;;;;;;11.23;8.07;;;14.30;99.90;;;;;;5117106;28;20460;-70
2021/10/20 04:58:01;;;;;;;10.80;8.83;;;14.30;99.90;;;;;;5117547;28;20455;-70
2021/10/20 05:00:28;;;;;;;8.20;7.40;;;14.30;99.90;;;;;;5117280;28;20475;-70
2021/10/20 05:02:54;;;;;;;8.33;7.53;;;14.30;99.90;;;;;;5117202;28;20524;-70
2021/10/20 05:05:23;;;;;;;8.67;7.80;;;14.30;99.90;;;;;;5117321;28;20521;-70
2021/10/20 05:07:51;;;;;;;8.63;7.73;;;14.30;99.90;;;;;;5116947;28;20476;-70
2021/10/20 05:10:19;;;;;;;9.70;7.73;;;14.30;99.90;;;;;;5116881;28;20820;-70
2021/10/20 05:12:46;;;;;;;9.30;7.10;;;14.30;99.90;;;;;;5116983;28;20450;-70
2021/10/20 05:15:14;;;;;;;9.33;7.77;;;14.30;99.90;;;;;;5116883;28;20452;-70
2021/10/20 05:17:41;;;;;;;8.57;7.33;;;14.30;99.90;;;;;;5117056;28;20522;-70
2021/10/20 05:20:10;;;;;;;8.53;7.57;;;14.20;99.90;;;;;;5116443;27;20489;-70
2021/10/20 05:22:39;;;;;;;8.87;7.97;;;14.20;99.90;;;;;;5116908;28;20449;-70
2021/10/20 05:25:08;;;;;;;8.70;7.53;;;14.30;99.90;;;;;;5115932;28;20480;-70
2021/10/20 05:27:35;;;;;;;8.77;7.30;;;14.30;99.90;;;;;;5116363;28;20457;-71
2021/10/20 05:30:02;;;;;;;7.87;7.07;;;14.20;99.90;;;;;;5116704;28;20459;-70
2021/10/20 05:32:29;;;;;;;8.73;7.77;;;14.20;99.90;;;;;;5116511;28;20509;-70
2021/10/20 05:34:57;;;;;;;6.87;6.17;;;14.20;99.90;;;;;;5116489;28;20784;-70
2021/10/20 05:37:24;;;;;;;16.93;7.10;;;14.10;99.90;;;;;;5116357;28;20471;-70
2021/10/20 05:39:53;;;;;;;8.20;7.40;;;14.20;99.90;;;;;;5116065;28;20464;-70
2021/10/20 05:42:20;;;;;;;8.80;7.10;;;14.20;99.90;;;;;;5116217;28;20457;-70
2021/10/20 05:44:47;;;;;;;11.80;7.23;;;14.20;99.90;;;;;;5116418;28;20480;-70
2021/10/20 05:47:15;;;;;;;10.93;7.00;;;14.20;99.90;;;;;;5116365;28;20456;-70
2021/10/20 05:49:42;;;;;;;7.73;6.97;;;14.20;99.90;;;;;;5116669;28;20978;-70
2021/10/20 05:52:09;;;;;;;6.67;6.07;;;14.10;99.90;;;;;;5115858;28;20459;-71
2021/10/20 05:54:35;;;;;;;9.93;7.03;;;14.20;99.90;;;;;;5116135;28;20456;-70
2021/10/20 05:57:04;;;;;;;8.00;6.73;;;14.10;99.90;;;;;;5116222;28;20468;-70
2021/10/20 05:59:30;;;;;;;6.70;6.00;;;14.20;99.90;;;;;;5115605;28;20920;-70
2021/10/20 06:01:57;;;;;;;7.23;6.43;;;14.20;99.90;;;;;;5115793;27;20457;-70
2021/10/20 06:04:24;;;;;;;6.90;5.73;;;14.20;99.90;;;;;;5115330;28;20480;-70
2021/10/20 06:06:50;;;;;;;6.90;6.20;;;14.20;99.90;;;;;;5115841;28;20495;-70
2021/10/20 06:09:17;;;;;;;8.60;6.20;;;14.30;99.90;;;;;;5115914;28;20456;-68
2021/10/20 06:11:44;;;;;;;7.53;6.73;;;14.30;99.90;;;;;;5115342;28;20457;-69
2021/10/20 06:14:13;;;;;;;9.67;6.37;;;14.30;99.90;;;;;;5115821;28;20930;-69
2021/10/20 06:16:41;;;;;;;6.70;6.10;;;14.30;99.90;;;;;;5115422;28;20465;-70
2021/10/20 06:19:08;;;;;;;10.63;6.40;;;14.40;99.90;;;;;;5115714;28;20483;-71
2021/10/20 06:21:35;;;;;;;6.80;5.73;;;14.30;99.90;;;;;;5115508;28;20780;-70
2021/10/20 06:24:02;;;;;;;7.87;6.03;;;14.40;99.90;;;;;;5115454;28;20481;-70
2021/10/20 06:26:28;;;;;;;8.10;5.83;;;14.40;99.90;;;;;;5115402;28;20466;-69
2021/10/20 06:28:55;;;;;;;7.93;5.40;;;14.30;99.90;;;;;;5115409;28;20778;-71
2021/10/20 06:31:23;;;;;;;6.03;5.43;;;14.30;99.90;;;;;;5115731;28;20452;-70
2021/10/20 06:33:50;;;;;;;7.83;6.13;;;14.40;99.90;;;;;;5115417;28;20517;-70
2021/10/20 06:36:21;;;;;;;6.03;5.47;;;14.30;99.90;;;;;;5114995;28;20460;-70
2021/10/20 06:38:47;;;;;;;5.30;4.80;;;14.30;99.90;;;;;;5115416;28;20451;-71
2021/10/20 06:41:14;;;;;;;6.37;5.30;;;14.30;99.90;;;;;;5115173;28;20468;-70
2021/10/20 06:43:41;;;;;;;5.83;5.33;;;14.30;99.90;;;;;;5115288;28;20507;-71
2021/10/20 06:46:09;;;;;;;9.00;5.77;;;14.30;99.90;;;;;;5115072;28;20467;-70
2021/10/20 06:48:37;;;;;;;7.83;5.30;;;14.30;99.90;;;;;;5115044;28;20932;-69
2021/10/20 06:51:04;;;;;;;5.80;5.07;;;14.40;99.90;;;;;;5115560;28;20475;-70
2021/10/20 06:53:31;;;;;;;8.33;5.40;;;14.40;99.90;;;;;;5114606;28;20457;-70
2021/10/20 06:55:57;;;;;;;6.13;5.47;;;14.30;99.90;;;;;;5114887;28;20908;-70
2021/10/20 06:58:24;;;;;;;6.53;5.40;;;14.40;99.90;;;;;;5114776;28;20509;-70
2021/10/20 07:00:51;;;;;;;5.37;4.87;;;14.40;99.90;;;;;;5114970;28;20460;-70
2021/10/20 07:03:18;;;;;;;5.70;5.00;;;14.40;99.90;;;;;;5115152;28;20456;-70
2021/10/20 07:05:46;;;;;;;6.13;5.00;;;14.40;99.90;;;;;;5114865;28;20481;-70
2021/10/20 07:08:12;;;;;;;5.40;4.90;;;14.40;99.90;;;;;;5114491;28;20492;-70
2021/10/20 07:10:39;;;;;;;8.50;5.70;;;14.40;99.90;;;;;;5115388;28;20456;-71
2021/10/20 07:13:06;;;;;;;5.97;4.47;;;14.40;99.90;;;;;;5115389;28;20467;-70
2021/10/20 07:15:34;;;;;;;5.33;4.83;;;14.40;99.90;;;;;;5116093;28;20452;-70
2021/10/20 07:18:01;;;;;;;5.40;4.60;;;14.50;99.90;;;;;;5115468;28;20519;-70
2021/10/20 07:20:28;;;;;;;4.97;4.47;;;14.50;99.90;;;;;;5115338;28;20457;-69
2021/10/20 07:22:56;;;;;;;6.43;4.53;;;14.60;99.90;;;;;;5118784;28;20457;-69
2021/10/20 07:25:23;;;;;;;5.40;4.33;;;14.60;99.90;;;;;;5116975;28;20506;-69
2021/10/20 07:27:50;;;;;;;6.73;4.80;;;14.70;99.90;;;;;;5115625;28;20493;-70
2021/10/20 07:30:18;;;;;;;5.07;4.60;;;14.70;99.90;;;;;;5115561;28;20604;-70
2021/10/20 07:32:44;;;;;;;4.67;4.27;;;14.70;99.90;;;;;;5115017;28;20463;-70
2021/10/20 07:35:14;;;;;;;6.73;4.37;;;14.70;99.90;;;;;;5119816;28;20469;-70
2021/10/20 07:37:41;;;;;;;6.13;5.10;;;14.70;99.90;;;;;;5122454;28;20455;-70
2021/10/20 07:40:12;;;;;;;4.10;3.70;;;14.80;99.90;;;;;;5114276;28;20457;-71
2021/10/20 07:42:39;;;;;;;4.63;3.93;;;14.90;99.90;;;;;;5114878;28;20436;-71
2021/10/20 07:45:11;;;;;;;8.00;4.53;;;14.90;99.90;;;;;;5114462;28;20472;-70
2021/10/20 07:47:38;;;;;;;6.10;4.80;;;15.00;99.90;;;;;;5115003;28;20775;-71
2021/10/20 07:50:06;;;;;;;5.10;4.60;;;15.00;99.90;;;;;;5118152;28;20931;-70
2021/10/20 07:52:33;;;;;;;5.23;4.73;;;15.10;99.90;;;;;;5118792;28;20452;-71
2021/10/20 07:55:00;;;;;;;4.97;4.10;;;15.10;99.90;;;;;;5118808;28;20828;-70
2021/10/20 07:57:29;;;;;;;5.40;3.90;;;15.10;99.90;;;;;;5118269;28;20516;-70
2021/10/20 07:59:56;;;;;;;4.47;4.07;;;15.20;99.90;;;;;;5117845;28;20537;-70
2021/10/20 08:02:23;;;;;;;8.27;3.90;;;15.20;99.90;;;;;;5118239;28;20471;-71
2021/10/20 08:04:50;;;;;;;8.63;3.80;;;15.30;99.90;;;;;;5118097;27;20819;-71
2021/10/20 08:07:16;;;;;;;6.17;4.27;;;15.30;99.90;;;;;;5118154;28;20484;-72
2021/10/20 08:09:43;;;;;;;5.47;4.23;;;15.40;99.90;;;;;;5118121;28;20469;-70
2021/10/20 08:12:10;;;;;;;5.10;3.80;;;15.50;99.90;;;;;;5117351;28;20912;-70
2021/10/20 08:14:41;;;;;;;6.30;4.30;;;15.60;99.90;;;;;;5117756;28;20457;-72
2021/10/20 08:17:08;;;;;;;5.10;3.87;;;15.80;99.90;;;;;;5117738;28;20441;-70
2021/10/20 08:19:34;;;;;;;4.60;4.10;;;15.90;99.90;;;;;;5117730;28;20641;-70
2021/10/20 08:22:01;;;;;;;8.90;5.60;;;16.00;99.90;;;;;;5118162;28;20458;-70
2021/10/20 08:24:28;;;;;;;4.47;3.40;;;16.10;99.90;;;;;;5117734;28;20892;-70
2021/10/20 08:26:55;;;;;;;3.47;3.17;;;16.20;99.90;;;;;;5117524;28;20467;-71
2021/10/20 08:29:22;;;;;;;4.30;3.33;;;16.20;99.90;;;;;;5117353;28;20464;-70
2021/10/20 08:31:50;;;;;;;6.80;3.60;;;16.20;99.90;;;;;;5117252;28;20801;-70
2021/10/20 08:34:17;;;;;;;10.93;4.30;;;16.30;99.90;;;;;;5117811;28;20776;-71
2021/10/20 08:36:43;;;;;;;5.20;3.30;;;16.40;99.90;;;;;;5117308;28;20492;-69
2021/10/20 08:39:10;;;;;;;7.50;3.87;;;16.50;99.90;;;;;;5117459;27;20796;-70
2021/10/20 08:41:37;;;;;;;5.63;4.10;;;16.60;99.90;;;;;;5117567;28;20521;-70
2021/10/20 08:44:04;;;;;;;6.03;3.57;;;16.70;99.90;;;;;;5116905;28;20461;-70
2021/10/20 08:46:33;;;;;;;7.50;3.50;;;16.70;99.90;;;;;;5117471;28;20467;-71
2021/10/20 08:49:04;;;;;;;3.77;3.30;;;16.80;99.90;;;;;;5117144;28;20461;-70
2021/10/20 08:51:31;;;;;;;6.70;3.77;;;16.80;99.90;;;;;;5116923;28;20441;-70
2021/10/20 08:53:59;;;;;;;3.80;3.40;;;16.80;99.90;;;;;;5116893;27;20467;-70
2021/10/20 08:56:25;;;;;;;4.93;3.97;;;16.80;99.90;;;;;;5116758;28;20921;-70
2021/10/20 08:58:52;;;;;;;3.83;3.50;;;16.80;99.90;;;;;;5116640;28;20912;-70
2021/10/20 09:01:19;;;;;;;6.57;4.67;;;16.70;99.90;;;;;;5116459;28;20542;-70
2021/10/20 09:03:46;;;;;;;4.30;3.80;;;16.70;99.90;;;;;;5117302;28;20468;-70
2021/10/20 09:06:15;;;;;;;4.70;4.07;;;16.70;99.90;;;;;;5116780;28;20871;-72
2021/10/20 09:08:43;;;;;;;7.83;3.67;;;16.70;99.90;;;;;;5117189;28;20451;-71
2021/10/20 09:11:29;;;;;;;3.43;3.13;;;16.70;99.90;;;;;;5116534;28;20460;-70
2021/10/20 09:13:59;;;;;;;4.00;3.60;;;16.70;99.90;;;;;;5116891;28;20458;-70
2021/10/20 09:16:26;;;;;;;3.13;2.83;;;16.80;99.90;;;;;;5116890;28;20841;-70
2021/10/20 09:18:53;;;;;;;3.57;3.27;;;16.80;99.90;;;;;;5117096;28;20893;-70
2021/10/20 09:21:21;;;;;;;4.93;3.73;;;16.80;99.90;;;;;;5116536;28;20472;-70
2021/10/20 09:23:47;;;;;;;3.30;3.00;;;16.90;99.90;;;;;;5116952;28;20453;-71
2021/10/20 09:26:14;;;;;;;3.47;3.17;;;16.90;99.90;;;;;;5116593;28;20483;-70
2021/10/20 09:28:41;;;;;;;4.73;3.50;;;17.00;99.90;;;;;;5116548;28;20808;-70
2021/10/20 09:31:10;;;;;;;5.70;3.70;;;16.90;99.90;;;;;;5116374;28;20524;-70
2021/10/20 09:33:39;;;;;;;3.50;3.20;;;16.90;99.90;;;;;;5116887;28;20845;-70
2021/10/20 09:36:07;;;;;;;3.73;3.43;;;16.80;99.90;;;;;;5116328;28;20452;-71
2021/10/20 09:38:37;;;;;;;5.23;3.47;;;16.80;99.90;;;;;;5115984;27;20785;-71
2021/10/20 09:41:06;;;;;;;5.33;3.13;;;16.80;99.90;;;;;;5116462;28;20893;-70
2021/10/20 09:43:33;;;;;;;4.10;3.10;;;16.70;99.90;;;;;;5116394;28;20498;-71
2021/10/20 09:46:02;;;;;;;4.73;3.47;;;16.70;99.90;;;;;;5116067;28;20778;-70
2021/10/20 09:48:29;;;;;;;6.63;4.03;;;16.70;99.90;;;;;;5116121;28;20845;-70
2021/10/20 09:50:58;;;;;;;4.03;3.40;;;16.70;99.90;;;;;;5116401;28;20457;-70
2021/10/20 09:53:27;;;;;;;2.97;2.63;;;16.80;99.90;;;;;;5116442;28;20460;-71
2021/10/20 09:55:55;;;;;;;4.20;3.80;;;16.80;99.90;;;;;;5116313;28;20460;-74
2021/10/20 09:58:22;;;;;;;4.00;3.57;;;16.80;99.90;;;;;;5116274;27;20475;-70
2021/10/20 10:00:49;;;;;;;3.97;3.53;;;16.80;99.90;;;;;;5116187;28;20532;-71
2021/10/20 10:03:15;;;;;;;6.43;3.80;;;16.80;99.90;;;;;;5116101;28;20788;-70
2021/10/20 10:05:42;;;;;;;7.27;4.17;;;16.80;99.90;;;;;;5115805;28;20475;-70
2021/10/20 10:08:09;;;;;;;4.40;4.00;;;16.70;99.90;;;;;;5116134;28;20477;-71
2021/10/20 10:10:36;;;;;;;3.80;3.50;;;16.60;99.90;;;;;;5115734;27;20464;-71
2021/10/20 10:13:09;;;;;;;3.83;3.53;;;16.40;99.90;;;;;;5116736;28;20484;-70
2021/10/20 10:15:39;;;;;;;7.07;3.83;;;16.30;99.90;;;;;;5116144;28;20524;-70
2021/10/20 10:18:07;;;;;;;4.20;3.80;;;16.10;99.90;;;;;;5115611;28;20841;-71
2021/10/20 10:20:40;;;;;;;4.50;3.63;;;16.00;99.90;;;;;;5117621;28;20733;-70
2021/10/20 10:23:17;;;;;;;3.93;3.63;;;16.00;99.90;;;;;;5117101;27;20496;-70
2021/10/20 10:25:44;;;;;;;4.13;3.73;;;16.00;99.90;;;;;;5115413;28;20491;-71
2021/10/20 10:28:22;;;;;;;10.03;3.87;;;16.00;99.90;;;;;;5115467;28;20457;-70
2021/10/20 10:30:50;;;;;;;4.20;3.50;;;16.00;99.90;;;;;;5115578;28;20467;-72
2021/10/20 10:33:22;;;;;;;5.10;4.23;;;16.00;99.90;;;;;;5115262;28;20457;-70
2021/10/20 10:36:13;;;;;;;4.93;4.40;;;16.00;99.90;;;;;;5117280;28;20464;-73
2021/10/20 10:38:42;;;;;;;4.63;4.20;;;16.00;99.90;;;;;;5117046;28;20437;-72
2021/10/20 10:41:24;;;;;;;4.77;3.80;;;16.10;99.90;;;;;;5116072;28;20475;-73
2021/10/20 10:44:16;;;;;;;4.87;4.20;;;16.10;99.90;;;;;;5116202;28;20441;-76
2021/10/20 10:46:54;;;;;;;5.67;4.13;;;16.00;99.90;;;;;;5115797;28;20480;-74
2021/10/20 10:49:28;;;;;;;5.37;3.70;;;16.00;99.90;;;;;;5115212;28;20440;-76
2021/10/20 10:52:16;;;;;;;8.20;4.10;;;16.00;99.90;;;;;;5115078;28;20514;-73
2021/10/20 10:54:54;;;;;;;5.30;3.63;;;15.90;99.90;;;;;;5115200;28;20469;-71
2021/10/20 10:57:23;;;;;;;7.30;3.43;;;15.90;99.90;;;;;;5115365;28;20725;-70
2021/10/20 10:59:55;;;;;;;5.80;4.27;;;15.90;99.90;;;;;;5114836;28;20456;-71
2021/10/20 11:02:45;;;;;;;5.53;4.67;;;15.90;99.90;;;;;;5114644;28;20460;-70
2021/10/20 11:05:13;;;;;;;7.00;4.40;;;15.90;99.90;;;;;;5114908;28;20461;-70
2021/10/20 11:07:43;;;;;;;7.67;4.63;;;16.00;99.90;;;;;;5114593;28;20562;-71
2021/10/20 11:10:10;;;;;;;5.10;4.40;;;16.00;99.90;;;;;;5115188;28;20457;-71
2021/10/20 11:12:38;;;;;;;9.57;4.30;;;16.00;99.90;;;;;;5114923;28;20471;-70
2021/10/20 11:15:07;;;;;;;5.40;4.50;;;16.00;99.90;;;;;;5114382;28;20944;-70
2021/10/20 11:17:33;;;;;;;6.00;4.87;;;16.00;99.90;;;;;;5114865;28;20448;-71
2021/10/20 11:20:06;;;;;;;5.20;4.70;;;16.00;99.90;;;;;;5114632;28;20517;-70
2021/10/20 11:22:34;;;;;;;6.67;5.13;;;16.10;99.90;;;;;;5115835;28;20444;-70
2021/10/20 11:25:02;;;;;;;7.57;5.47;;;16.20;99.90;;;;;;5119084;28;20921;-71
2021/10/20 11:27:30;;;;;;;5.77;4.50;;;16.20;99.90;;;;;;5119130;28;20817;-71
2021/10/20 11:29:57;;;;;;;8.73;4.83;;;16.30;99.90;;;;;;5119271;28;20480;-71
2021/10/20 11:32:25;;;;;;;9.90;6.27;;;16.40;99.90;;;;;;5119655;28;20523;-69
2021/10/20 11:34:54;;;;;;;9.77;6.60;;;16.40;99.90;;;;;;5119377;28;20467;-69
2021/10/20 11:37:23;;;;;;;8.97;5.60;;;16.50;99.90;;;;;;5118891;28;20448;-70
2021/10/20 11:39:55;;;;;;;16.00;5.53;;;16.50;99.90;;;;;;5118514;28;20460;-69
2021/10/20 11:42:23;;;;;;;8.30;5.27;;;16.60;99.90;;;;;;5118864;28;20463;-71
2021/10/20 11:44:50;;;;;;;8.70;6.10;;;16.60;99.90;;;;;;5119181;28;20456;-71
2021/10/20 11:47:18;;;;;;;6.63;4.67;;;16.70;99.90;;;;;;5118672;28;20839;-71
2021/10/20 11:49:48;;;;;;;5.00;4.50;;;16.70;99.90;;;;;;5118522;28;20464;-69
2021/10/20 11:52:17;;;;;;;9.60;4.17;;;16.80;99.90;;;;;;5118363;28;20476;-70
2021/10/20 11:54:44;;;;;;;5.43;3.90;;;16.80;99.90;;;;;;5118265;28;20912;-70
2021/10/20 11:57:14;;;;;;;6.30;4.70;;;16.90;99.90;;;;;;5118375;28;20456;-70
2021/10/20 11:59:44;;;;;;;5.30;3.87;;;17.00;99.90;;;;;;5118249;27;20766;-70
2021/10/20 12:02:12;;;;;;;6.73;4.00;;;17.00;99.90;;;;;;5118262;28;20453;-69
2021/10/20 12:04:40;;;;;;;6.03;3.80;;;17.10;99.90;;;;;;5118619;28;20452;-69
2021/10/20 12:07:11;;;;;;;4.23;3.73;;;17.20;99.90;;;;;;5118029;28;20495;-70
2021/10/20 12:09:40;;;;;;;4.10;3.57;;;17.20;99.90;;;;;;5117743;28;20916;-69
2021/10/20 12:12:07;;;;;;;4.40;4.00;;;17.20;99.90;;;;;;5118394;28;20453;-71
2021/10/20 12:14:38;;;;;;;8.40;4.20;;;17.30;99.90;;;;;;5118153;28;20464;-71
2021/10/20 12:17:07;;;;;;;4.13;3.47;;;17.30;99.90;;;;;;5120780;28;20862;-71
2021/10/20 12:19:37;;;;;;;5.50;4.03;;;17.30;99.90;;;;;;5121868;28;20454;-70
2021/10/20 12:22:08;;;;;;;11.30;3.70;;;17.30;99.90;;;;;;5120736;28;20522;-70
2021/10/20 12:24:39;;;;;;;5.80;4.07;;;17.40;99.90;;;;;;5120741;28;20448;-71
2021/10/20 12:27:07;;;;;;;3.37;3.07;;;17.60;99.90;;;;;;5120640;28;20461;-71
2021/10/20 12:29:39;;;;;;;5.80;3.67;;;17.70;99.90;;;;;;5120619;28;20457;-70
2021/10/20 12:32:11;;;;;;;6.43;3.33;;;17.80;99.90;;;;;;5120417;28;20449;-70
2021/10/20 12:34:38;;;;;;;6.30;3.80;;;17.90;99.90;;;;;;5117649;28;20441;-71
2021/10/20 12:37:05;;;;;;;6.10;3.50;;;18.10;99.90;;;;;;5117698;28;20462;-70
2021/10/20 12:39:33;;;;;;;6.30;3.50;;;18.30;99.90;;;;;;5117628;28;20459;-71
2021/10/20 12:42:03;;;;;;;4.07;3.23;;;18.50;99.90;;;;;;5117330;28;20484;-70
2021/10/20 12:44:32;;;;;;;3.30;3.00;;;18.70;99.90;;;;;;5117764;28;20515;-71
2021/10/20 12:46:59;;;;;;;3.50;2.97;;;19.20;99.90;;;;;;5117660;28;20582;-71